Time;durP1;ratioP1;P1;durP2;ratioP2;P2;SDS_P1;SDS_P2;PMS_P1;PMS_P2;Temp;Humidity;BMP_temperature;BMP_pressure;BME280_temperature;BME280_humidity;BME280_pressure;Samples;Min_cycle;Max_cycle;Signal;HPM_P1;HPM_P2
2023/06/28 00:01:06;;;;;;;1.60;1.50;;;;;;;24.72;52.89;97580.03;5006784;28;20681;-28
2023/06/28 00:03:33;;;;;;;1.67;1.37;;;;;;;24.71;53.46;97586.03;5011032;28;20276;-28
2023/06/28 00:05:59;;;;;;;1.30;1.20;;;;;;;24.71;53.34;97585.16;5011790;28;20582;-29
2023/06/28 00:08:26;;;;;;;1.50;1.40;;;;;;;24.71;53.35;97603.13;5006210;28;20248;-29
2023/06/28 00:10:53;;;;;;;2.67;1.40;;;;;;;24.70;53.26;97610.00;5002483;28;20210;-28
2023/06/28 00:13:19;;;;;;;2.97;1.53;;;;;;;24.68;52.73;97634.81;5010058;28;20218;-29
2023/06/28 00:15:46;;;;;;;1.67;1.57;;;;;;;24.66;52.90;97633.91;5010689;28;20652;-28
2023/06/28 00:18:12;;;;;;;1.67;1.33;;;;;;;24.68;53.20;97654.50;5010897;28;20288;-28
2023/06/28 00:20:40;;;;;;;1.53;1.43;;;;;;;24.67;53.63;97655.34;5001387;28;20213;-29
2023/06/28 00:23:08;;;;;;;1.40;1.30;;;;;;;24.66;53.47;97656.19;5009239;28;20202;-28
2023/06/28 00:25:35;;;;;;;1.70;1.40;;;;;;;24.65;53.26;97655.31;5003346;28;20272;-28
2023/06/28 00:28:03;;;;;;;1.40;1.30;;;;;;;24.65;53.51;97664.72;5004366;28;20696;-28
2023/06/28 00:30:30;;;;;;;1.50;1.40;;;;;;;24.63;53.57;97664.66;5010498;28;20295;-28
2023/06/28 00:32:57;;;;;;;1.47;1.37;;;;;;;24.63;53.29;97662.06;5003808;28;20276;-28
2023/06/28 00:35:23;;;;;;;1.50;1.40;;;;;;;24.61;54.16;97675.75;5005534;28;20285;-29
2023/06/28 00:37:50;;;;;;;1.33;1.23;;;;;;;24.57;53.82;97667.09;5002960;28;20666;-28
2023/06/28 00:40:17;;;;;;;1.40;1.30;;;;;;;24.60;53.96;97667.16;5018276;28;20210;-28
2023/06/28 00:42:43;;;;;;;1.50;1.30;;;;;;;24.61;53.68;97665.47;5009792;28;20201;-29
2023/06/28 00:45:11;;;;;;;1.97;1.60;;;;;;;24.61;53.84;97676.63;5009548;28;20276;-29
2023/06/28 00:47:38;;;;;;;1.40;1.30;;;;;;;24.63;53.52;97684.38;5016181;28;20601;-28
2023/06/28 00:50:06;;;;;;;1.57;1.43;;;;;;;24.64;53.85;97686.09;5000308;28;20210;-30
2023/06/28 00:52:32;;;;;;;1.67;1.30;;;;;;;24.65;53.88;97701.56;5012833;28;20795;-28
2023/06/28 00:54:59;;;;;;;1.50;1.40;;;;;;;24.67;54.06;97709.31;5008642;28;20336;-29
2023/06/28 00:57:26;;;;;;;1.40;1.30;;;;;;;24.67;53.93;97710.19;5016476;28;20256;-29
2023/06/28 00:59:52;;;;;;;1.33;1.23;;;;;;;24.69;53.69;97721.34;4993224;28;20269;-28
2023/06/28 01:02:19;;;;;;;1.30;1.20;;;;;;;24.71;53.65;97724.81;5013806;28;20234;-28
2023/06/28 01:04:46;;;;;;;1.63;1.40;;;;;;;24.73;53.77;97728.31;5001812;28;20737;-28
2023/06/28 01:07:13;;;;;;;1.50;1.40;;;;;;;24.74;53.76;97730.03;5000353;28;20272;-29
2023/06/28 01:09:40;;;;;;;1.60;1.50;;;;;;;24.76;54.03;97730.06;4998041;28;20206;-29
2023/06/28 01:12:06;;;;;;;1.40;1.30;;;;;;;24.77;53.66;97729.22;5009922;28;20215;-29
2023/06/28 01:14:33;;;;;;;1.47;1.37;;;;;;;24.80;53.73;97729.25;4990611;28;20222;-28
2023/06/28 01:17:00;;;;;;;1.60;1.50;;;;;;;24.81;53.63;97728.44;4999210;28;20278;-28
2023/06/28 01:19:26;;;;;;;1.60;1.50;;;;;;;24.83;53.63;97729.31;4990589;28;20194;-29
2023/06/28 01:22:01;;;;;;;1.50;1.33;;;;;;;24.86;53.93;97729.38;5006999;28;20219;-29
2023/06/28 01:24:28;;;;;;;1.40;1.30;;;;;;;24.84;53.59;97725.94;5002547;28;20703;-29
2023/06/28 01:26:58;;;;;;;1.40;1.30;;;;;;;24.88;53.21;97743.16;4986334;28;20207;-28
2023/06/28 01:29:24;;;;;;;1.40;1.30;;;;;;;24.90;53.64;97746.63;5000573;28;20202;-29
2023/06/28 01:31:51;;;;;;;1.67;1.50;;;;;;;24.90;53.85;97760.31;5010132;28;20215;-29
2023/06/28 01:34:18;;;;;;;1.37;1.27;;;;;;;24.94;53.67;97757.00;5010916;28;20218;-28
2023/06/28 01:36:46;;;;;;;1.50;1.40;;;;;;;24.93;53.77;97751.81;5004374;28;20203;-29
2023/06/28 01:39:13;;;;;;;1.47;1.37;;;;;;;24.95;53.34;97748.44;4986959;28;20249;-28
2023/06/28 01:41:40;;;;;;;1.50;1.40;;;;;;;24.98;53.66;97752.75;4999562;28;20194;-29
2023/06/28 01:44:07;;;;;;;1.47;1.37;;;;;;;24.97;53.40;97745.91;4993917;28;20202;-30
2023/06/28 01:46:34;;;;;;;1.60;1.50;;;;;;;24.98;53.31;97737.34;5010850;28;20684;-28
2023/06/28 01:49:01;;;;;;;1.73;1.57;;;;;;;25.00;53.16;97735.66;4999729;28;20206;-28
2023/06/28 01:51:27;;;;;;;1.40;1.30;;;;;;;25.02;53.23;97746.84;5004109;28;20217;-28
2023/06/28 01:53:54;;;;;;;2.67;1.60;;;;;;;25.03;53.43;97746.00;5004567;28;20198;-30
2023/06/28 01:56:21;;;;;;;1.70;1.60;;;;;;;25.03;53.62;97734.03;5001900;28;20206;-29
2023/06/28 01:58:48;;;;;;;1.47;1.30;;;;;;;25.02;53.39;97732.28;4998245;28;20601;-29
2023/06/28 02:01:14;;;;;;;1.50;1.20;;;;;;;25.03;53.15;97722.88;5000619;28;20257;-28
2023/06/28 02:03:41;;;;;;;1.50;1.40;;;;;;;25.04;53.29;97716.88;5006714;28;20704;-28
2023/06/28 02:06:08;;;;;;;1.50;1.40;;;;;;;25.05;53.09;97716.91;5008187;28;20721;-28
2023/06/28 02:08:35;;;;;;;1.37;1.30;;;;;;;25.07;53.04;97711.78;5003647;28;20225;-28
2023/06/28 02:11:01;;;;;;;1.50;1.40;;;;;;;25.07;53.58;97704.06;5000782;28;20207;-29
2023/06/28 02:13:28;;;;;;;1.50;1.40;;;;;;;25.08;53.35;97695.53;5004790;28;20226;-28
2023/06/28 02:15:55;;;;;;;1.33;1.23;;;;;;;25.07;53.53;97681.81;5003186;28;20280;-29
2023/06/28 02:18:24;;;;;;;1.87;1.50;;;;;;;25.07;53.39;97676.66;5013549;28;20198;-28
2023/06/28 02:20:51;;;;;;;1.63;1.53;;;;;;;25.10;53.37;97680.97;5009804;28;20202;-28
2023/06/28 02:23:21;;;;;;;1.27;1.17;;;;;;;25.10;53.46;97679.28;5008272;28;20199;-29
2023/06/28 02:25:47;;;;;;;1.40;1.30;;;;;;;25.09;53.50;97671.53;5013024;28;20218;-29
2023/06/28 02:28:14;;;;;;;1.90;1.40;;;;;;;25.09;53.01;97680.13;5009656;28;20202;-28
2023/06/28 02:30:41;;;;;;;1.30;1.20;;;;;;;25.10;53.47;97680.97;5011668;28;20198;-30
2023/06/28 02:33:08;;;;;;;1.50;1.40;;;;;;;25.11;53.48;97690.44;5011455;28;20309;-28
2023/06/28 02:35:35;;;;;;;1.37;1.27;;;;;;;25.11;53.29;97687.88;4990795;28;20222;-28
2023/06/28 02:38:01;;;;;;;1.63;1.40;;;;;;;25.11;53.36;97680.16;5003593;28;20671;-29
2023/06/28 02:40:28;;;;;;;1.10;1.10;;;;;;;25.09;53.07;97677.56;4998252;28;20691;-28
2023/06/28 02:42:54;;;;;;;2.43;1.20;;;;;;;25.13;53.39;97685.34;5007312;28;20264;-28
2023/06/28 02:45:21;;;;;;;1.27;1.17;;;;;;;25.13;53.07;97680.19;5007822;28;20304;-28
2023/06/28 02:47:47;;;;;;;1.40;1.30;;;;;;;25.12;53.12;97684.47;5008747;28;20199;-29
2023/06/28 02:50:14;;;;;;;1.30;1.20;;;;;;;25.11;53.39;97675.84;5009649;28;20292;-28
2023/06/28 02:52:41;;;;;;;1.57;1.20;;;;;;;25.07;53.49;97668.94;5006062;28;20691;-30
2023/06/28 02:55:07;;;;;;;1.73;1.40;;;;;;;25.12;53.31;97689.59;5008163;28;20697;-30
2023/06/28 02:57:34;;;;;;;1.57;1.37;;;;;;;25.13;53.14;97686.19;5001617;28;20213;-29
2023/06/28 03:00:01;;;;;;;1.63;1.20;;;;;;;25.14;53.23;97690.50;5005518;28;20202;-28
2023/06/28 03:02:27;;;;;;;1.30;1.20;;;;;;;25.13;53.49;97682.75;5006975;28;20260;-31
2023/06/28 03:04:54;;;;;;;1.17;1.10;;;;;;;25.09;53.17;97677.56;5000491;28;20593;-28
2023/06/28 03:07:21;;;;;;;1.27;1.20;;;;;;;25.12;53.23;97687.03;5006948;28;20642;-29
2023/06/28 03:09:47;;;;;;;1.40;1.30;;;;;;;25.10;53.00;97688.69;5005455;28;20198;-29
2023/06/28 03:12:14;;;;;;;1.50;1.40;;;;;;;25.08;53.55;97685.25;5004984;28;20241;-29
2023/06/28 03:14:41;;;;;;;1.23;1.13;;;;;;;25.05;53.09;97687.78;5001715;28;20720;-28
2023/06/28 03:17:07;;;;;;;1.27;1.17;;;;;;;25.01;53.56;97688.53;5004738;28;20281;-29
2023/06/28 03:19:36;;;;;;;1.23;1.20;;;;;;;24.98;53.63;97688.47;5005950;28;20571;-31
2023/06/28 03:22:03;;;;;;;1.70;1.47;;;;;;;24.97;53.84;97684.19;5001362;28;20230;-28
2023/06/28 03:24:30;;;;;;;1.40;1.30;;;;;;;24.96;53.66;97698.72;5008405;28;20404;-29
2023/06/28 03:26:56;;;;;;;1.30;1.20;;;;;;;24.95;53.65;97699.59;5003474;28;20248;-32
2023/06/28 03:29:23;;;;;;;1.80;1.40;;;;;;;24.95;53.55;97693.56;5009541;28;20676;-28
2023/06/28 03:31:49;;;;;;;1.23;1.13;;;;;;;24.93;54.18;97698.69;5003418;28;20211;-28
2023/06/28 03:34:16;;;;;;;1.40;1.30;;;;;;;24.93;53.62;97700.41;5004545;28;20301;-28
2023/06/28 03:36:43;;;;;;;1.50;1.40;;;;;;;24.93;53.78;97692.69;5001731;28;20284;-29
2023/06/28 03:39:25;;;;;;;1.73;1.47;;;;;;;24.92;53.77;97693.50;4998113;28;20673;-29
2023/06/28 03:41:51;;;;;;;1.40;1.30;;;;;;;24.92;54.04;97696.06;5000981;28;20254;-28
2023/06/28 03:44:18;;;;;;;1.33;1.23;;;;;;;24.86;54.21;97691.69;5009102;28;20276;-28
2023/06/28 03:46:44;;;;;;;1.37;1.27;;;;;;;24.89;53.83;97702.03;4981068;28;20231;-28
2023/06/28 03:49:11;;;;;;;1.20;1.10;;;;;;;24.91;54.27;97699.50;4999766;28;20199;-36
2023/06/28 03:51:38;;;;;;;1.40;1.30;;;;;;;24.90;54.22;97705.50;5003794;28;20585;-28
2023/06/28 03:54:06;;;;;;;1.27;1.17;;;;;;;24.88;53.99;97702.88;4993052;28;20214;-29
2023/06/28 03:56:32;;;;;;;1.30;1.20;;;;;;;24.89;54.00;97706.31;5008771;28;20677;-29
2023/06/28 03:58:59;;;;;;;1.30;1.20;;;;;;;24.88;54.01;97708.03;5001065;28;20202;-29
2023/06/28 04:01:26;;;;;;;1.33;1.23;;;;;;;24.87;54.23;97705.44;5005013;28;20194;-36
2023/06/28 04:03:52;;;;;;;1.40;1.30;;;;;;;24.86;54.15;97704.56;5006416;28;20657;-28
2023/06/28 04:06:19;;;;;;;1.23;1.20;;;;;;;24.87;53.84;97708.84;5006954;28;20618;-28
2023/06/28 04:08:46;;;;;;;1.50;1.40;;;;;;;24.86;53.79;97708.81;5007498;28;20248;-29
2023/06/28 04:11:13;;;;;;;1.40;1.30;;;;;;;24.85;53.98;97707.97;4997148;28;20265;-28
2023/06/28 04:13:40;;;;;;;1.23;1.17;;;;;;;24.84;54.09;97706.22;5006993;28;20268;-28
2023/06/28 04:16:06;;;;;;;2.83;1.03;;;;;;;24.84;54.04;97705.38;4988027;28;20265;-30
2023/06/28 04:18:33;;;;;;;1.40;1.30;;;;;;;24.84;53.91;97708.78;5004674;28;20221;-29
2023/06/28 04:20:59;;;;;;;1.40;1.30;;;;;;;24.83;53.97;97707.06;4998541;28;20237;-29
2023/06/28 04:23:26;;;;;;;1.33;1.23;;;;;;;24.84;54.00;97710.50;5000109;28;20270;-28
2023/06/28 04:25:53;;;;;;;1.30;1.20;;;;;;;24.83;54.12;97703.63;4995465;28;20235;-34
2023/06/28 04:28:19;;;;;;;1.30;1.20;;;;;;;24.83;54.36;97721.63;5005836;28;20202;-28
2023/06/28 04:30:46;;;;;;;1.50;1.30;;;;;;;24.83;54.41;97714.78;5004319;28;20257;-28
2023/06/28 04:33:18;;;;;;;1.30;1.20;;;;;;;24.82;54.26;97715.63;4994329;28;20226;-28
2023/06/28 04:35:47;;;;;;;1.10;1.10;;;;;;;24.82;54.57;97720.78;5006216;28;20272;-29
2023/06/28 04:38:14;;;;;;;1.10;1.10;;;;;;;24.81;54.36;97715.59;4999185;28;20257;-35
2023/06/28 04:40:41;;;;;;;1.23;1.13;;;;;;;24.78;53.96;97707.81;5000150;28;20630;-28
2023/06/28 04:43:10;;;;;;;1.13;1.10;;;;;;;24.81;54.34;97710.47;5010640;28;20577;-29
2023/06/28 04:45:37;;;;;;;1.23;1.23;;;;;;;24.81;53.81;97713.88;5003284;28;20608;-28
2023/06/28 04:48:05;;;;;;;1.50;1.40;;;;;;;24.78;53.98;97708.66;5003552;28;20197;-28
2023/06/28 04:50:41;;;;;;;1.40;1.30;;;;;;;24.80;54.29;97713.84;4997184;28;20198;-29
2023/06/28 04:53:08;;;;;;;1.37;1.27;;;;;;;24.75;54.01;97702.63;4999263;28;20618;-29
2023/06/28 04:55:35;;;;;;;1.40;1.30;;;;;;;24.79;54.21;97718.13;5002745;28;20226;-29
2023/06/28 04:58:03;;;;;;;1.93;1.60;;;;;;;24.80;54.12;97713.84;5007760;28;20245;-29
2023/06/28 05:00:30;;;;;;;4.07;2.40;;;;;;;24.80;54.21;97711.28;5001067;28;20538;-28
2023/06/28 05:03:02;;;;;;;3.50;2.47;;;;;;;24.79;54.45;97709.53;5011174;28;20683;-32
2023/06/28 05:05:29;;;;;;;2.80;2.43;;;;;;;24.76;54.35;97705.22;5002944;28;20222;-29
2023/06/28 05:07:56;;;;;;;3.63;2.83;;;;;;;24.76;54.95;97706.91;5000607;28;20206;-28
2023/06/28 05:10:23;;;;;;;7.13;2.53;;;;;;;24.72;54.59;97710.28;4996901;28;20207;-28
2023/06/28 05:12:51;;;;;;;10.77;2.60;;;;;;;24.67;54.58;97709.31;5005647;28;20226;-28
2023/06/28 05:15:18;;;;;;;3.10;2.47;;;;;;;24.61;55.01;97701.44;4996335;28;20223;-28
2023/06/28 05:17:45;;;;;;;4.43;2.77;;;;;;;24.57;54.71;97697.94;5009347;28;20296;-28
2023/06/28 05:20:12;;;;;;;4.30;2.60;;;;;;;24.35;54.50;97672.66;5000233;28;20205;-28
2023/06/28 05:22:46;;;;;;;5.87;2.80;;;;;;;24.47;54.32;97696.03;5001951;28;20195;-28
2023/06/28 05:25:12;;;;;;;4.67;2.80;;;;;;;24.42;54.88;97702.75;5001984;28;20222;-29
2023/06/28 05:27:39;;;;;;;4.53;3.07;;;;;;;24.38;54.44;97713.81;5010790;28;20226;-28
2023/06/28 05:30:07;;;;;;;2.93;2.60;;;;;;;24.34;54.84;97711.16;5009043;28;20207;-28
2023/06/28 05:32:34;;;;;;;4.93;3.03;;;;;;;24.29;54.88;97699.91;5003336;28;20203;-29
2023/06/28 05:35:03;;;;;;;3.73;2.67;;;;;;;24.27;55.32;97699.88;5010139;28;20246;-28
2023/06/28 05:37:30;;;;;;;4.97;2.80;;;;;;;24.21;55.37;97691.16;5007755;28;20545;-29
2023/06/28 05:39:57;;;;;;;2.93;2.50;;;;;;;24.21;55.77;97696.28;5004266;28;20211;-28
2023/06/28 05:42:23;;;;;;;5.17;2.80;;;;;;;24.18;55.80;97694.53;5007927;28;20446;-29
2023/06/28 05:44:50;;;;;;;5.53;3.10;;;;;;;24.15;56.26;97694.47;5000120;28;20232;-28
2023/06/28 05:47:16;;;;;;;5.23;3.20;;;;;;;24.12;56.56;97696.97;5008289;28;20202;-28
2023/06/28 05:49:43;;;;;;;4.30;2.70;;;;;;;24.09;56.08;97702.06;5007996;28;20256;-29
2023/06/28 05:52:10;;;;;;;3.67;2.83;;;;;;;24.07;56.08;97702.84;5007572;28;20588;-28
2023/06/28 05:54:36;;;;;;;4.03;2.97;;;;;;;24.04;55.80;97703.63;5013738;28;20260;-28
2023/06/28 05:57:03;;;;;;;3.20;2.90;;;;;;;23.95;55.75;97690.59;5002378;28;20640;-37
2023/06/28 05:59:31;;;;;;;5.50;2.90;;;;;;;23.96;56.66;97709.44;5012801;28;20209;-28
2023/06/28 06:01:57;;;;;;;4.17;3.00;;;;;;;23.94;56.68;97696.53;5006149;28;20233;-28
2023/06/28 06:04:24;;;;;;;3.70;2.97;;;;;;;23.92;56.37;97710.19;5009109;28;20225;-29
2023/06/28 06:06:51;;;;;;;3.53;2.90;;;;;;;23.89;56.21;97700.69;4999559;28;20614;-29
2023/06/28 06:09:17;;;;;;;3.90;3.23;;;;;;;23.89;56.35;97694.72;5008666;28;20241;-28
2023/06/28 06:11:45;;;;;;;3.57;3.10;;;;;;;23.86;56.83;97703.19;5011866;28;20206;-29
2023/06/28 06:14:11;;;;;;;7.17;3.30;;;;;;;23.84;56.50;97710.00;5002019;28;20231;-28
2023/06/28 06:16:38;;;;;;;4.77;3.33;;;;;;;23.83;56.76;97705.69;5011799;28;20255;-28
2023/06/28 06:19:04;;;;;;;4.33;3.30;;;;;;;23.82;56.64;97706.53;5005908;28;20226;-28
2023/06/28 06:21:31;;;;;;;4.40;3.03;;;;;;;23.81;56.49;97704.81;5006925;28;20248;-28
2023/06/28 06:23:59;;;;;;;3.57;3.27;;;;;;;23.80;56.54;97708.19;4993842;28;20229;-29
2023/06/28 06:26:27;;;;;;;5.70;3.33;;;;;;;23.74;56.26;97705.47;5003609;28;20203;-29
2023/06/28 06:28:54;;;;;;;6.93;3.40;;;;;;;23.76;56.54;97711.53;5008511;28;20649;-28
2023/06/28 06:31:20;;;;;;;4.77;3.57;;;;;;;23.70;56.83;97697.66;5008875;28;20607;-28
2023/06/28 06:33:47;;;;;;;4.37;3.30;;;;;;;23.69;57.30;97706.22;5005043;28;20215;-31
2023/06/28 06:36:14;;;;;;;6.20;3.20;;;;;;;23.62;57.62;97696.63;5004032;28;20260;-28
2023/06/28 06:38:41;;;;;;;5.63;3.63;;;;;;;23.67;57.67;97707.84;5005541;28;20203;-29
2023/06/28 06:41:07;;;;;;;8.03;3.50;;;;;;;23.65;57.65;97709.53;5001476;28;20196;-28
2023/06/28 06:43:34;;;;;;;8.77;3.53;;;;;;;23.64;57.45;97708.66;4999444;28;20214;-29
2023/06/28 06:46:01;;;;;;;4.63;3.20;;;;;;;23.65;57.45;97706.97;4998377;28;20305;-29
2023/06/28 06:48:27;;;;;;;6.00;3.63;;;;;;;23.67;57.21;97705.28;5000033;28;20604;-29
2023/06/28 06:50:54;;;;;;;6.30;3.50;;;;;;;23.65;57.45;97702.69;4997169;28;20207;-28
2023/06/28 06:53:20;;;;;;;9.03;3.63;;;;;;;23.67;57.55;97706.16;5012607;28;20226;-28
2023/06/28 06:55:47;;;;;;;4.90;3.10;;;;;;;23.69;56.32;97712.22;5013416;28;20222;-30
2023/06/28 06:58:14;;;;;;;4.27;2.80;;;;;;;23.71;54.32;97710.53;5004393;28;20229;-28
2023/06/28 07:00:40;;;;;;;4.30;2.90;;;;;;;23.74;52.84;97713.16;5007104;28;20198;-29
2023/06/28 07:03:07;;;;;;;4.07;2.70;;;;;;;23.77;51.69;97702.13;4998877;28;20198;-28
2023/06/28 07:05:34;;;;;;;4.80;2.60;;;;;;;23.82;50.95;97703.97;4998649;28;20885;-28
2023/06/28 07:08:01;;;;;;;4.87;3.00;;;;;;;23.88;50.62;97708.34;4996634;28;20249;-29
2023/06/28 07:10:27;;;;;;;4.07;2.50;;;;;;;23.91;51.87;97711.88;5001492;28;20622;-29
2023/06/28 07:12:54;;;;;;;4.73;2.60;;;;;;;23.95;51.87;97715.38;4996985;28;20207;-29
2023/06/28 07:15:21;;;;;;;2.97;2.50;;;;;;;24.01;52.29;97715.56;5002156;28;20288;-28
2023/06/28 07:17:47;;;;;;;4.33;2.20;;;;;;;24.04;52.34;97710.50;4999815;28;20206;-28
2023/06/28 07:20:14;;;;;;;2.87;2.23;;;;;;;24.07;52.63;97708.00;5012159;28;20241;-28
2023/06/28 07:22:41;;;;;;;5.70;2.57;;;;;;;24.09;52.75;97712.31;5012753;28;20202;-28
2023/06/28 07:25:07;;;;;;;5.03;2.30;;;;;;;24.12;52.77;97711.50;5011307;28;20214;-28
2023/06/28 07:27:34;;;;;;;3.40;2.20;;;;;;;24.14;52.95;97709.84;5012710;28;20297;-29
2023/06/28 07:30:01;;;;;;;4.77;2.20;;;;;;;24.16;53.14;97710.75;4998617;28;20207;-29
2023/06/28 07:32:28;;;;;;;5.13;2.40;;;;;;;24.17;53.18;97715.94;5006432;28;20205;-28
2023/06/28 07:34:54;;;;;;;3.07;2.13;;;;;;;24.18;52.78;97722.78;5007100;28;20250;-30
2023/06/28 07:37:22;;;;;;;2.77;2.23;;;;;;;24.20;52.87;97727.97;5015544;28;20202;-29
2023/06/28 07:39:49;;;;;;;4.83;2.40;;;;;;;24.20;52.89;97721.13;5005360;28;20269;-29
2023/06/28 07:42:15;;;;;;;4.17;2.47;;;;;;;24.22;52.99;97721.16;5010774;28;20681;-29
2023/06/28 07:44:43;;;;;;;3.87;2.33;;;;;;;24.23;53.07;97725.47;5012393;28;20222;-29
2023/06/28 07:47:09;;;;;;;2.00;1.87;;;;;;;24.24;53.34;97720.34;5010048;28;20208;-29
2023/06/28 07:49:36;;;;;;;2.83;2.23;;;;;;;24.25;53.59;97721.22;5012269;28;20819;-30
2023/06/28 07:52:03;;;;;;;3.83;2.30;;;;;;;24.25;53.26;97737.50;4995063;28;20203;-29
2023/06/28 07:54:30;;;;;;;2.40;2.07;;;;;;;24.16;52.95;97714.19;5003858;28;20229;-29
2023/06/28 07:57:00;;;;;;;2.83;2.00;;;;;;;24.28;53.12;97729.00;5005824;28;20248;-29
2023/06/28 07:59:27;;;;;;;2.23;2.00;;;;;;;24.26;53.43;97718.69;5006070;28;20207;-28
2023/06/28 08:01:54;;;;;;;2.20;2.00;;;;;;;24.28;53.61;97716.16;5004111;28;20224;-29
2023/06/28 08:04:22;;;;;;;2.93;1.80;;;;;;;24.30;53.29;97722.19;5007124;28;20246;-28
2023/06/28 08:06:49;;;;;;;3.87;1.97;;;;;;;24.31;53.38;97721.38;5000200;28;20649;-29
2023/06/28 08:09:16;;;;;;;2.50;1.83;;;;;;;24.32;53.80;97716.25;5004108;28;20199;-29
2023/06/28 08:11:42;;;;;;;2.40;2.03;;;;;;;24.32;53.80;97716.25;5008476;28;20203;-29
2023/06/28 08:14:09;;;;;;;3.33;2.00;;;;;;;24.33;53.78;97717.97;5007562;28;20280;-28
2023/06/28 08:16:36;;;;;;;2.40;2.07;;;;;;;24.34;53.70;97714.56;5016410;28;20213;-33
2023/06/28 08:19:02;;;;;;;2.10;1.90;;;;;;;24.33;53.48;97707.72;5004139;28;20198;-29
2023/06/28 08:21:29;;;;;;;1.90;1.80;;;;;;;24.34;53.59;97701.72;5006023;28;20670;-28
2023/06/28 08:23:55;;;;;;;2.07;1.90;;;;;;;24.35;53.74;97702.59;5000683;28;20194;-28
2023/06/28 08:26:22;;;;;;;1.97;1.70;;;;;;;24.36;53.76;97702.63;5003990;28;20206;-29
2023/06/28 08:28:49;;;;;;;4.60;1.70;;;;;;;24.36;53.30;97701.75;4999754;28;20281;-28
2023/06/28 08:31:26;;;;;;;2.63;1.50;;;;;;;24.35;53.58;97708.63;5007833;28;20554;-28
2023/06/28 08:33:52;;;;;;;1.90;1.70;;;;;;;24.35;53.80;97707.75;5003552;28;20269;-29
2023/06/28 08:36:19;;;;;;;3.13;1.90;;;;;;;24.36;53.93;97704.31;5009514;28;20201;-29
2023/06/28 08:38:46;;;;;;;1.77;1.67;;;;;;;24.34;53.56;97706.88;5011925;28;20202;-28
2023/06/28 08:41:13;;;;;;;3.20;1.87;;;;;;;24.36;53.86;97707.78;5000439;28;20230;-28
2023/06/28 08:43:42;;;;;;;2.30;1.70;;;;;;;24.36;53.89;97714.59;4998809;28;20681;-28
2023/06/28 08:46:09;;;;;;;2.00;1.60;;;;;;;24.36;53.93;97715.47;4997832;28;20226;-31
2023/06/28 08:48:35;;;;;;;3.67;2.00;;;;;;;24.36;53.83;97715.47;5010114;28;20232;-29
2023/06/28 08:51:02;;;;;;;1.70;1.60;;;;;;;24.33;53.70;97706.84;5001421;28;20682;-30
2023/06/28 08:53:29;;;;;;;1.70;1.60;;;;;;;24.34;53.74;97711.16;4983870;28;20728;-28
2023/06/28 08:55:56;;;;;;;1.50;1.40;;;;;;;24.36;53.92;97710.34;4990693;28;20583;-32
2023/06/28 08:58:23;;;;;;;2.10;1.73;;;;;;;24.37;54.10;97713.78;5010044;28;20206;-28
2023/06/28 09:00:50;;;;;;;2.17;1.70;;;;;;;24.36;53.60;97707.78;5005745;28;20206;-29
2023/06/28 09:03:16;;;;;;;2.03;1.83;;;;;;;24.37;53.78;97704.34;5009981;28;20711;-28
2023/06/28 09:05:46;;;;;;;1.80;1.70;;;;;;;24.39;53.62;97712.13;4988133;28;20223;-32
2023/06/28 09:08:13;;;;;;;1.83;1.73;;;;;;;24.37;54.04;97709.50;5002677;28;20226;-29
2023/06/28 09:10:40;;;;;;;2.07;1.60;;;;;;;24.35;54.08;97705.19;5005314;28;20400;-28
2023/06/28 09:13:06;;;;;;;1.70;1.60;;;;;;;24.38;53.90;97711.25;4989831;28;20285;-28
2023/06/28 09:15:34;;;;;;;1.63;1.53;;;;;;;24.40;54.07;97704.47;4989163;28;20226;-28
2023/06/28 09:18:00;;;;;;;1.50;1.40;;;;;;;24.40;54.08;97706.16;5014768;28;20669;-28
2023/06/28 09:20:27;;;;;;;1.60;1.50;;;;;;;24.40;53.80;97699.31;5007114;28;20206;-29
2023/06/28 09:23:00;;;;;;;2.20;2.00;;;;;;;24.41;54.08;97703.59;5002430;28;20681;-29
2023/06/28 09:25:29;;;;;;;1.60;1.50;;;;;;;24.40;53.77;97698.44;5013313;28;20218;-29
2023/06/28 09:27:56;;;;;;;1.97;1.80;;;;;;;24.41;54.20;97701.03;5000286;28;20214;-29
2023/06/28 09:30:23;;;;;;;1.70;1.60;;;;;;;24.41;54.14;97692.44;5000040;28;20640;-29
2023/06/28 09:32:52;;;;;;;1.70;1.60;;;;;;;24.41;53.76;97685.63;5007061;28;20202;-29
2023/06/28 09:35:19;;;;;;;1.63;1.53;;;;;;;24.42;53.80;97694.22;5007346;28;20222;-28
2023/06/28 09:37:52;;;;;;;1.73;1.63;;;;;;;24.42;54.00;97692.50;5002194;28;20298;-29
2023/06/28 09:40:19;;;;;;;1.57;1.47;;;;;;;24.42;53.95;97687.34;4994026;28;20199;-29
2023/06/28 09:42:49;;;;;;;1.60;1.50;;;;;;;24.41;54.09;97680.50;5005196;28;20206;-29
2023/06/28 09:45:26;;;;;;;3.33;1.50;;;;;;;24.42;54.04;97674.50;4985537;28;20238;-28
2023/06/28 09:47:58;;;;;;;1.60;1.50;;;;;;;24.42;53.87;97682.22;5004403;28;20665;-29
2023/06/28 09:50:45;;;;;;;1.40;1.30;;;;;;;24.44;53.86;97687.38;5007902;28;20202;-28
2023/06/28 09:53:11;;;;;;;1.60;1.50;;;;;;;24.42;53.96;97674.50;5002787;28;20685;-29
2023/06/28 09:55:39;;;;;;;1.50;1.40;;;;;;;24.43;54.26;97683.09;4998237;28;20668;-28
2023/06/28 09:58:10;;;;;;;1.60;1.50;;;;;;;24.43;53.85;97677.94;5003494;28;20201;-29
2023/06/28 10:00:38;;;;;;;1.60;1.50;;;;;;;24.44;54.03;97677.09;5008735;28;20227;-28
2023/06/28 10:03:06;;;;;;;1.50;1.40;;;;;;;24.42;53.97;97671.94;5002401;28;20259;-29
2023/06/28 10:05:34;;;;;;;1.70;1.60;;;;;;;24.43;53.90;97673.69;5007822;28;20755;-29
2023/06/28 10:08:12;;;;;;;1.30;1.30;;;;;;;24.43;53.63;97676.25;5003554;28;20199;-29
2023/06/28 10:10:39;;;;;;;1.60;1.50;;;;;;;24.43;54.08;97663.41;5005427;28;20199;-28
2023/06/28 10:13:07;;;;;;;1.53;1.43;;;;;;;24.43;53.79;97663.41;4999592;28;20609;-29
2023/06/28 10:15:36;;;;;;;1.23;1.20;;;;;;;24.41;54.16;97659.94;4993214;28;20297;-29
2023/06/28 10:18:03;;;;;;;1.70;1.40;;;;;;;24.43;54.14;97667.66;4988867;28;20725;-28
2023/06/28 10:20:30;;;;;;;1.50;1.40;;;;;;;24.44;53.94;97674.53;5012025;28;20206;-28
2023/06/28 10:22:56;;;;;;;1.50;1.40;;;;;;;24.44;53.76;97671.97;5012133;28;20722;-28
2023/06/28 10:25:23;;;;;;;1.60;1.50;;;;;;;24.45;53.64;97668.59;5008455;28;20272;-29
2023/06/28 10:27:50;;;;;;;1.57;1.47;;;;;;;24.43;53.73;97673.69;5013810;28;20202;-29
2023/06/28 10:30:16;;;;;;;1.50;1.40;;;;;;;24.43;53.70;97683.09;5009476;28;20221;-28
2023/06/28 10:32:43;;;;;;;1.47;1.30;;;;;;;24.42;54.11;97676.22;4996341;28;20622;-28
2023/06/28 10:35:10;;;;;;;1.40;1.30;;;;;;;24.40;53.71;97671.06;5013571;28;20230;-29
2023/06/28 10:37:37;;;;;;;1.50;1.30;;;;;;;24.41;53.58;97672.78;4991975;28;20250;-28
2023/06/28 10:40:05;;;;;;;1.50;1.40;;;;;;;24.43;54.03;97672.81;4992970;28;20597;-28
2023/06/28 10:42:39;;;;;;;2.07;1.70;;;;;;;24.42;53.87;97673.66;4985659;28;20579;-29
2023/06/28 10:45:06;;;;;;;1.87;1.43;;;;;;;24.42;53.79;97671.94;5011448;28;20268;-29
2023/06/28 10:47:34;;;;;;;1.30;1.20;;;;;;;24.42;53.70;97669.38;5013616;28;20627;-28
2023/06/28 10:50:04;;;;;;;1.50;1.40;;;;;;;24.43;54.08;97673.69;5013088;28;20254;-29
2023/06/28 10:52:31;;;;;;;1.40;1.30;;;;;;;24.43;53.81;97667.66;5007209;28;20199;-28
2023/06/28 10:54:57;;;;;;;1.50;1.40;;;;;;;24.43;54.25;97671.13;5007405;28;20297;-28
2023/06/28 10:57:39;;;;;;;1.30;1.27;;;;;;;24.44;53.94;97666.81;4996064;28;20199;-28
2023/06/28 11:00:09;;;;;;;1.50;1.40;;;;;;;24.43;53.98;97663.41;5006903;28;20202;-28
2023/06/28 11:02:52;;;;;;;1.33;1.30;;;;;;;24.43;54.14;97665.97;5004546;28;20264;-28
2023/06/28 11:05:45;;;;;;;2.27;1.60;;;;;;;24.42;54.13;97655.69;5015967;28;20229;-28
2023/06/28 11:08:14;;;;;;;1.50;1.40;;;;;;;24.43;53.99;97658.28;5007197;28;20200;-29
2023/06/28 11:10:54;;;;;;;1.47;1.37;;;;;;;24.44;53.98;97660.00;5009949;28;20199;-28
2023/06/28 11:13:39;;;;;;;1.40;1.30;;;;;;;24.44;53.88;97656.56;5012751;28;20675;-29
2023/06/28 11:16:08;;;;;;;1.40;1.30;;;;;;;24.44;54.31;97660.00;5011288;28;20730;-29
2023/06/28 11:18:35;;;;;;;1.50;1.40;;;;;;;24.44;53.93;97656.56;5006925;28;20218;-28
2023/06/28 11:21:02;;;;;;;1.30;1.20;;;;;;;24.45;54.08;97658.31;5012721;28;20264;-29
2023/06/28 11:23:39;;;;;;;1.57;1.30;;;;;;;24.41;53.85;97664.19;5010807;28;20210;-28
2023/06/28 11:26:16;;;;;;;1.33;1.23;;;;;;;24.44;54.04;97665.13;5011611;28;20229;-29
2023/06/28 11:28:50;;;;;;;1.23;1.13;;;;;;;24.44;53.96;97670.28;5012834;28;20244;-28
2023/06/28 11:31:19;;;;;;;1.40;1.30;;;;;;;24.45;54.27;97672.00;5012519;28;20210;-28
2023/06/28 11:33:50;;;;;;;1.30;1.27;;;;;;;24.45;54.10;97666.00;5012742;28;20597;-29
2023/06/28 11:36:17;;;;;;;1.40;1.30;;;;;;;24.45;53.97;97672.00;5012098;28;20230;-29